sensor_id;sensor_type;location;lat;lon;timestamp;P1;durP1;ratioP1;P2;durP2;ratioP2
34541;SDS011;20784;51.332;12.410;2022-11-15T00:01:17;16.73;;;11.88;;
34541;SDS011;20784;51.332;12.410;2022-11-15T00:03:44;20.77;;;11.90;;
34541;SDS011;20784;51.332;12.410;2022-11-15T00:06:13;17.95;;;12.00;;
34541;SDS011;20784;51.332;12.410;2022-11-15T00:08:41;16.95;;;10.73;;
34541;SDS011;20784;51.332;12.410;2022-11-15T00:11:08;17.83;;;11.45;;
34541;SDS011;20784;51.332;12.410;2022-11-15T00:13:41;14.85;;;11.48;;
34541;SDS011;20784;51.332;12.410;2022-11-15T00:16:08;18.05;;;10.93;;
34541;SDS011;20784;51.332;12.410;2022-11-15T00:18:35;16.75;;;10.60;;
34541;SDS011;20784;51.332;12.410;2022-11-15T00:21:03;15.10;;;11.05;;
34541;SDS011;20784;51.332;12.410;2022-11-15T00:23:31;15.20;;;10.73;;
34541;SDS011;20784;51.332;12.410;2022-11-15T00:25:57;17.88;;;10.85;;
34541;SDS011;20784;51.332;12.410;2022-11-15T00:28:24;18.00;;;11.52;;
34541;SDS011;20784;51.332;12.410;2022-11-15T00:30:49;19.65;;;10.80;;
34541;SDS011;20784;51.332;12.410;2022-11-15T00:33:15;15.70;;;10.88;;
34541;SDS011;20784;51.332;12.410;2022-11-15T00:35:41;16.35;;;11.05;;
34541;SDS011;20784;51.332;12.410;2022-11-15T00:38:06;15.38;;;9.80;;
34541;SDS011;20784;51.332;12.410;2022-11-15T00:40:32;20.35;;;11.02;;
34541;SDS011;20784;51.332;12.410;2022-11-15T00:42:58;14.57;;;9.95;;
34541;SDS011;20784;51.332;12.410;2022-11-15T00:45:24;16.42;;;10.60;;
34541;SDS011;20784;51.332;12.410;2022-11-15T00:47:50;19.90;;;10.90;;
34541;SDS011;20784;51.332;12.410;2022-11-15T00:50:16;16.23;;;11.05;;
34541;SDS011;20784;51.332;12.410;2022-11-15T00:52:42;16.95;;;11.15;;
34541;SDS011;20784;51.332;12.410;2022-11-15T00:55:15;20.80;;;10.43;;
34541;SDS011;20784;51.332;12.410;2022-11-15T00:57:42;16.37;;;11.23;;
34541;SDS011;20784;51.332;12.410;2022-11-15T01:00:08;19.88;;;11.25;;
34541;SDS011;20784;51.332;12.410;2022-11-15T01:02:34;15.23;;;9.75;;
34541;SDS011;20784;51.332;12.410;2022-11-15T01:05:00;13.85;;;10.23;;
34541;SDS011;20784;51.332;12.410;2022-11-15T01:07:26;15.32;;;9.93;;
34541;SDS011;20784;51.332;12.410;2022-11-15T01:09:51;14.55;;;9.90;;
34541;SDS011;20784;51.332;12.410;2022-11-15T01:12:17;15.50;;;9.40;;
34541;SDS011;20784;51.332;12.410;2022-11-15T01:14:42;17.52;;;10.18;;
34541;SDS011;20784;51.332;12.410;2022-11-15T01:17:08;14.82;;;9.65;;
34541;SDS011;20784;51.332;12.410;2022-11-15T01:19:34;14.40;;;9.68;;
34541;SDS011;20784;51.332;12.410;2022-11-15T01:21:59;18.58;;;10.27;;
34541;SDS011;20784;51.332;12.410;2022-11-15T01:24:25;15.95;;;10.55;;
34541;SDS011;20784;51.332;12.410;2022-11-15T01:26:52;18.42;;;9.90;;
34541;SDS011;20784;51.332;12.410;2022-11-15T01:29:17;14.55;;;9.52;;
34541;SDS011;20784;51.332;12.410;2022-11-15T01:31:43;13.32;;;9.32;;
34541;SDS011;20784;51.332;12.410;2022-11-15T01:34:08;17.40;;;9.75;;
34541;SDS011;20784;51.332;12.410;2022-11-15T01:36:34;17.55;;;10.65;;
34541;SDS011;20784;51.332;12.410;2022-11-15T01:39:00;15.48;;;9.60;;
34541;SDS011;20784;51.332;12.410;2022-11-15T01:41:27;13.77;;;9.35;;
34541;SDS011;20784;51.332;12.410;2022-11-15T01:43:56;13.95;;;9.90;;
34541;SDS011;20784;51.332;12.410;2022-11-15T01:46:42;17.23;;;10.88;;
34541;SDS011;20784;51.332;12.410;2022-11-15T01:49:16;14.98;;;9.52;;
34541;SDS011;20784;51.332;12.410;2022-11-15T01:51:45;15.02;;;9.32;;
34541;SDS011;20784;51.332;12.410;2022-11-15T01:54:12;17.30;;;10.48;;
34541;SDS011;20784;51.332;12.410;2022-11-15T01:56:42;16.50;;;10.32;;
34541;SDS011;20784;51.332;12.410;2022-11-15T01:59:15;14.35;;;9.38;;
34541;SDS011;20784;51.332;12.410;2022-11-15T02:01:41;16.65;;;10.48;;
34541;SDS011;20784;51.332;12.410;2022-11-15T02:06:41;14.68;;;9.85;;
34541;SDS011;20784;51.332;12.410;2022-11-15T02:09:09;15.32;;;10.35;;
34541;SDS011;20784;51.332;12.410;2022-11-15T02:11:35;15.35;;;9.82;;
34541;SDS011;20784;51.332;12.410;2022-11-15T02:14:05;16.42;;;9.05;;
34541;SDS011;20784;51.332;12.410;2022-11-15T02:16:47;15.48;;;9.32;;
34541;SDS011;20784;51.332;12.410;2022-11-15T02:19:28;15.98;;;10.05;;
34541;SDS011;20784;51.332;12.410;2022-11-15T02:22:33;13.52;;;8.80;;
34541;SDS011;20784;51.332;12.410;2022-11-15T02:31:11;15.27;;;8.88;;
34541;SDS011;20784;51.332;12.410;2022-11-15T02:33:59;15.95;;;10.20;;
34541;SDS011;20784;51.332;12.410;2022-11-15T02:36:49;14.75;;;8.98;;
34541;SDS011;20784;51.332;12.410;2022-11-15T02:42:07;13.88;;;9.45;;
34541;SDS011;20784;51.332;12.410;2022-11-15T02:44:56;19.27;;;9.03;;
34541;SDS011;20784;51.332;12.410;2022-11-15T02:47:31;17.48;;;9.95;;
34541;SDS011;20784;51.332;12.410;2022-11-15T02:50:02;14.93;;;9.80;;
34541;SDS011;20784;51.332;12.410;2022-11-15T02:52:33;15.02;;;9.45;;
34541;SDS011;20784;51.332;12.410;2022-11-15T02:54:59;14.73;;;9.77;;
34541;SDS011;20784;51.332;12.410;2022-11-15T02:57:44;13.95;;;8.73;;
34541;SDS011;20784;51.332;12.410;2022-11-15T03:00:20;14.63;;;9.55;;
34541;SDS011;20784;51.332;12.410;2022-11-15T03:11:05;13.02;;;8.35;;
34541;SDS011;20784;51.332;12.410;2022-11-15T03:16:19;17.45;;;8.75;;
34541;SDS011;20784;51.332;12.410;2022-11-15T03:18:59;16.50;;;8.75;;
34541;SDS011;20784;51.332;12.410;2022-11-15T03:21:29;14.55;;;9.38;;
34541;SDS011;20784;51.332;12.410;2022-11-15T03:23:57;13.68;;;9.10;;
34541;SDS011;20784;51.332;12.410;2022-11-15T03:26:26;14.60;;;9.13;;
34541;SDS011;20784;51.332;12.410;2022-11-15T03:28:58;14.13;;;9.40;;
34541;SDS011;20784;51.332;12.410;2022-11-15T03:31:30;13.32;;;8.27;;
34541;SDS011;20784;51.332;12.410;2022-11-15T03:34:26;13.18;;;8.60;;
34541;SDS011;20784;51.332;12.410;2022-11-15T03:36:56;13.20;;;8.60;;
34541;SDS011;20784;51.332;12.410;2022-11-15T03:39:22;12.68;;;8.38;;
34541;SDS011;20784;51.332;12.410;2022-11-15T03:44:42;12.80;;;7.93;;
34541;SDS011;20784;51.332;12.410;2022-11-15T03:47:24;11.20;;;7.78;;
34541;SDS011;20784;51.332;12.410;2022-11-15T03:49:57;15.23;;;8.20;;
34541;SDS011;20784;51.332;12.410;2022-11-15T03:52:26;13.07;;;7.83;;
34541;SDS011;20784;51.332;12.410;2022-11-15T03:54:57;12.23;;;7.97;;
34541;SDS011;20784;51.332;12.410;2022-11-15T03:57:27;14.63;;;8.32;;
34541;SDS011;20784;51.332;12.410;2022-11-15T03:59:52;11.25;;;7.88;;
34541;SDS011;20784;51.332;12.410;2022-11-15T04:02:18;13.27;;;8.75;;
34541;SDS011;20784;51.332;12.410;2022-11-15T04:04:44;12.43;;;8.20;;
34541;SDS011;20784;51.332;12.410;2022-11-15T04:07:10;13.40;;;7.75;;
34541;SDS011;20784;51.332;12.410;2022-11-15T04:09:35;11.77;;;8.45;;
34541;SDS011;20784;51.332;12.410;2022-11-15T04:12:24;18.13;;;8.05;;
34541;SDS011;20784;51.332;12.410;2022-11-15T04:14:56;12.32;;;7.50;;
34541;SDS011;20784;51.332;12.410;2022-11-15T04:17:36;11.50;;;8.05;;
34541;SDS011;20784;51.332;12.410;2022-11-15T04:20:08;11.65;;;7.88;;
34541;SDS011;20784;51.332;12.410;2022-11-15T04:23:05;13.65;;;7.85;;
34541;SDS011;20784;51.332;12.410;2022-11-15T04:25:52;15.52;;;8.30;;
34541;SDS011;20784;51.332;12.410;2022-11-15T04:28:19;11.75;;;8.00;;
34541;SDS011;20784;51.332;12.410;2022-11-15T04:30:45;13.65;;;8.02;;
34541;SDS011;20784;51.332;12.410;2022-11-15T04:33:11;14.32;;;8.70;;
34541;SDS011;20784;51.332;12.410;2022-11-15T04:35:37;12.23;;;8.23;;
34541;SDS011;20784;51.332;12.410;2022-11-15T04:38:03;12.57;;;8.52;;
34541;SDS011;20784;51.332;12.410;2022-11-15T04:40:30;14.38;;;8.65;;
34541;SDS011;20784;51.332;12.410;2022-11-15T04:42:57;13.27;;;8.07;;
34541;SDS011;20784;51.332;12.410;2022-11-15T04:45:22;13.75;;;7.95;;
34541;SDS011;20784;51.332;12.410;2022-11-15T04:47:48;13.50;;;8.27;;
34541;SDS011;20784;51.332;12.410;2022-11-15T04:50:14;12.70;;;8.60;;
34541;SDS011;20784;51.332;12.410;2022-11-15T04:52:41;13.02;;;7.97;;
34541;SDS011;20784;51.332;12.410;2022-11-15T04:55:11;13.65;;;8.40;;
34541;SDS011;20784;51.332;12.410;2022-11-15T04:57:36;14.60;;;8.05;;
34541;SDS011;20784;51.332;12.410;2022-11-15T05:00:04;15.52;;;7.88;;
34541;SDS011;20784;51.332;12.410;2022-11-15T05:02:31;13.63;;;8.63;;
34541;SDS011;20784;51.332;12.410;2022-11-15T05:05:15;14.10;;;9.05;;
34541;SDS011;20784;51.332;12.410;2022-11-15T05:07:41;13.30;;;8.23;;
34541;SDS011;20784;51.332;12.410;2022-11-15T05:10:07;13.48;;;8.88;;
34541;SDS011;20784;51.332;12.410;2022-11-15T05:12:33;13.43;;;8.15;;
34541;SDS011;20784;51.332;12.410;2022-11-15T05:14:59;13.13;;;8.38;;
34541;SDS011;20784;51.332;12.410;2022-11-15T05:17:24;14.98;;;8.43;;
34541;SDS011;20784;51.332;12.410;2022-11-15T05:19:52;17.80;;;8.82;;
34541;SDS011;20784;51.332;12.410;2022-11-15T05:22:20;15.00;;;9.05;;
34541;SDS011;20784;51.332;12.410;2022-11-15T05:24:47;13.77;;;8.75;;
34541;SDS011;20784;51.332;12.410;2022-11-15T05:27:12;13.70;;;8.57;;
34541;SDS011;20784;51.332;12.410;2022-11-15T05:29:41;15.27;;;8.50;;
34541;SDS011;20784;51.332;12.410;2022-11-15T05:32:07;14.75;;;8.32;;
34541;SDS011;20784;51.332;12.410;2022-11-15T05:34:34;14.82;;;8.98;;
34541;SDS011;20784;51.332;12.410;2022-11-15T05:37:03;12.13;;;8.63;;
34541;SDS011;20784;51.332;12.410;2022-11-15T05:39:31;13.82;;;8.77;;
34541;SDS011;20784;51.332;12.410;2022-11-15T05:41:58;13.80;;;8.85;;
34541;SDS011;20784;51.332;12.410;2022-11-15T05:44:36;13.13;;;8.73;;
34541;SDS011;20784;51.332;12.410;2022-11-15T05:47:06;14.82;;;8.88;;
34541;SDS011;20784;51.332;12.410;2022-11-15T05:49:35;12.82;;;8.80;;
34541;SDS011;20784;51.332;12.410;2022-11-15T05:52:05;16.30;;;9.13;;
34541;SDS011;20784;51.332;12.410;2022-11-15T05:54:33;14.55;;;8.68;;
34541;SDS011;20784;51.332;12.410;2022-11-15T05:57:03;16.48;;;8.43;;
34541;SDS011;20784;51.332;12.410;2022-11-15T05:59:29;12.32;;;8.18;;
34541;SDS011;20784;51.332;12.410;2022-11-15T06:01:56;15.85;;;8.07;;
34541;SDS011;20784;51.332;12.410;2022-11-15T06:04:25;12.02;;;8.50;;
34541;SDS011;20784;51.332;12.410;2022-11-15T06:06:50;12.85;;;8.88;;
34541;SDS011;20784;51.332;12.410;2022-11-15T06:09:16;12.70;;;8.00;;
34541;SDS011;20784;51.332;12.410;2022-11-15T06:11:42;12.13;;;8.30;;
34541;SDS011;20784;51.332;12.410;2022-11-15T06:14:07;11.35;;;7.93;;
34541;SDS011;20784;51.332;12.410;2022-11-15T06:16:33;11.30;;;7.78;;
34541;SDS011;20784;51.332;12.410;2022-11-15T06:18:59;13.57;;;8.05;;
34541;SDS011;20784;51.332;12.410;2022-11-15T06:21:24;13.85;;;8.30;;
34541;SDS011;20784;51.332;12.410;2022-11-15T06:23:52;16.95;;;7.60;;
34541;SDS011;20784;51.332;12.410;2022-11-15T06:26:18;12.38;;;8.20;;
34541;SDS011;20784;51.332;12.410;2022-11-15T06:28:44;19.70;;;11.77;;
34541;SDS011;20784;51.332;12.410;2022-11-15T06:31:10;28.35;;;15.77;;
34541;SDS011;20784;51.332;12.410;2022-11-15T06:33:36;16.25;;;10.05;;
34541;SDS011;20784;51.332;12.410;2022-11-15T06:36:06;13.15;;;8.98;;
34541;SDS011;20784;51.332;12.410;2022-11-15T06:38:33;13.82;;;8.05;;
34541;SDS011;20784;51.332;12.410;2022-11-15T06:41:04;13.10;;;7.80;;
34541;SDS011;20784;51.332;12.410;2022-11-15T06:43:32;15.88;;;8.00;;
34541;SDS011;20784;51.332;12.410;2022-11-15T06:46:25;14.02;;;8.57;;
34541;SDS011;20784;51.332;12.410;2022-11-15T06:48:58;12.07;;;7.32;;
34541;SDS011;20784;51.332;12.410;2022-11-15T06:51:24;11.75;;;7.07;;
34541;SDS011;20784;51.332;12.410;2022-11-15T06:53:50;11.77;;;7.60;;
34541;SDS011;20784;51.332;12.410;2022-11-15T06:56:21;16.38;;;7.38;;
34541;SDS011;20784;51.332;12.410;2022-11-15T06:58:47;13.43;;;7.40;;
34541;SDS011;20784;51.332;12.410;2022-11-15T07:01:12;10.68;;;7.28;;
34541;SDS011;20784;51.332;12.410;2022-11-15T07:03:50;12.95;;;7.90;;
34541;SDS011;20784;51.332;12.410;2022-11-15T07:06:37;13.27;;;8.20;;
34541;SDS011;20784;51.332;12.410;2022-11-15T07:09:02;12.63;;;6.45;;
34541;SDS011;20784;51.332;12.410;2022-11-15T07:11:28;11.23;;;6.47;;
34541;SDS011;20784;51.332;12.410;2022-11-15T07:13:54;11.52;;;7.28;;
34541;SDS011;20784;51.332;12.410;2022-11-15T07:16:19;10.63;;;7.40;;
34541;SDS011;20784;51.332;12.410;2022-11-15T07:18:45;12.32;;;7.50;;
34541;SDS011;20784;51.332;12.410;2022-11-15T07:21:11;11.55;;;6.53;;
34541;SDS011;20784;51.332;12.410;2022-11-15T07:23:37;9.95;;;7.00;;
34541;SDS011;20784;51.332;12.410;2022-11-15T07:26:04;10.48;;;7.15;;
34541;SDS011;20784;51.332;12.410;2022-11-15T07:28:30;12.73;;;7.30;;
34541;SDS011;20784;51.332;12.410;2022-11-15T07:31:05;9.05;;;6.40;;
34541;SDS011;20784;51.332;12.410;2022-11-15T07:33:32;10.68;;;6.18;;
34541;SDS011;20784;51.332;12.410;2022-11-15T07:35:59;11.98;;;6.28;;
34541;SDS011;20784;51.332;12.410;2022-11-15T07:38:34;7.88;;;5.90;;
34541;SDS011;20784;51.332;12.410;2022-11-15T07:41:03;14.25;;;6.00;;
34541;SDS011;20784;51.332;12.410;2022-11-15T07:43:33;8.93;;;5.93;;
34541;SDS011;20784;51.332;12.410;2022-11-15T07:46:05;9.40;;;6.15;;
34541;SDS011;20784;51.332;12.410;2022-11-15T07:48:34;8.90;;;6.10;;
34541;SDS011;20784;51.332;12.410;2022-11-15T07:51:04;8.40;;;6.00;;
34541;SDS011;20784;51.332;12.410;2022-11-15T07:53:31;7.97;;;5.57;;
34541;SDS011;20784;51.332;12.410;2022-11-15T07:55:57;8.18;;;5.90;;
34541;SDS011;20784;51.332;12.410;2022-11-15T07:58:22;9.02;;;5.35;;
34541;SDS011;20784;51.332;12.410;2022-11-15T08:00:48;10.38;;;5.47;;
34541;SDS011;20784;51.332;12.410;2022-11-15T08:03:15;7.22;;;5.53;;
34541;SDS011;20784;51.332;12.410;2022-11-15T08:05:42;9.73;;;5.32;;
34541;SDS011;20784;51.332;12.410;2022-11-15T08:08:10;7.28;;;5.35;;
34541;SDS011;20784;51.332;12.410;2022-11-15T08:10:36;7.63;;;4.95;;
34541;SDS011;20784;51.332;12.410;2022-11-15T08:13:03;8.63;;;5.30;;
34541;SDS011;20784;51.332;12.410;2022-11-15T08:15:30;7.40;;;5.22;;
34541;SDS011;20784;51.332;12.410;2022-11-15T08:17:58;6.60;;;5.07;;
34541;SDS011;20784;51.332;12.410;2022-11-15T08:20:25;8.15;;;4.97;;
34541;SDS011;20784;51.332;12.410;2022-11-15T08:22:54;9.52;;;4.85;;
34541;SDS011;20784;51.332;12.410;2022-11-15T08:25:21;7.10;;;5.00;;
34541;SDS011;20784;51.332;12.410;2022-11-15T08:27:47;9.65;;;5.65;;
34541;SDS011;20784;51.332;12.410;2022-11-15T08:30:16;5.95;;;4.93;;
34541;SDS011;20784;51.332;12.410;2022-11-15T08:32:41;9.07;;;4.93;;
34541;SDS011;20784;51.332;12.410;2022-11-15T08:35:07;5.43;;;4.32;;
34541;SDS011;20784;51.332;12.410;2022-11-15T08:37:33;5.82;;;5.00;;
34541;SDS011;20784;51.332;12.410;2022-11-15T08:39:59;7.72;;;4.95;;
34541;SDS011;20784;51.332;12.410;2022-11-15T08:42:27;7.03;;;4.90;;
34541;SDS011;20784;51.332;12.410;2022-11-15T08:44:53;9.57;;;4.97;;
34541;SDS011;20784;51.332;12.410;2022-11-15T08:47:19;5.55;;;4.43;;
34541;SDS011;20784;51.332;12.410;2022-11-15T08:49:48;7.30;;;4.47;;
34541;SDS011;20784;51.332;12.410;2022-11-15T08:52:21;6.85;;;4.72;;
34541;SDS011;20784;51.332;12.410;2022-11-15T08:54:50;7.15;;;4.90;;
34541;SDS011;20784;51.332;12.410;2022-11-15T08:59:44;7.40;;;4.43;;
34541;SDS011;20784;51.332;12.410;2022-11-15T09:02:13;6.13;;;4.53;;
34541;SDS011;20784;51.332;12.410;2022-11-15T09:04:44;7.05;;;5.22;;
34541;SDS011;20784;51.332;12.410;2022-11-15T09:07:21;7.07;;;5.40;;
34541;SDS011;20784;51.332;12.410;2022-11-15T09:09:57;6.03;;;4.45;;
34541;SDS011;20784;51.332;12.410;2022-11-15T09:12:26;7.65;;;4.38;;
34541;SDS011;20784;51.332;12.410;2022-11-15T09:14:51;5.80;;;4.43;;
34541;SDS011;20784;51.332;12.410;2022-11-15T09:17:20;10.23;;;4.70;;
34541;SDS011;20784;51.332;12.410;2022-11-15T09:19:47;5.65;;;4.43;;
34541;SDS011;20784;51.332;12.410;2022-11-15T09:22:18;7.32;;;4.18;;
34541;SDS011;20784;51.332;12.410;2022-11-15T09:24:59;7.97;;;4.55;;
34541;SDS011;20784;51.332;12.410;2022-11-15T09:27:28;7.75;;;4.95;;
34541;SDS011;20784;51.332;12.410;2022-11-15T09:29:57;5.22;;;4.55;;
34541;SDS011;20784;51.332;12.410;2022-11-15T09:32:23;6.82;;;4.63;;
34541;SDS011;20784;51.332;12.410;2022-11-15T09:34:51;7.50;;;4.88;;
34541;SDS011;20784;51.332;12.410;2022-11-15T09:37:17;6.70;;;4.18;;
34541;SDS011;20784;51.332;12.410;2022-11-15T09:39:43;10.98;;;4.60;;
34541;SDS011;20784;51.332;12.410;2022-11-15T09:56:26;8.40;;;4.60;;
34541;SDS011;20784;51.332;12.410;2022-11-15T10:05:08;7.13;;;4.50;;
34541;SDS011;20784;51.332;12.410;2022-11-15T10:11:27;9.68;;;4.20;;
34541;SDS011;20784;51.332;12.410;2022-11-15T10:20:23;4.93;;;3.88;;
34541;SDS011;20784;51.332;12.410;2022-11-15T10:23:05;4.85;;;4.10;;
34541;SDS011;20784;51.332;12.410;2022-11-15T10:25:48;9.20;;;4.35;;
34541;SDS011;20784;51.332;12.410;2022-11-15T10:31:28;6.38;;;3.95;;
34541;SDS011;20784;51.332;12.410;2022-11-15T10:34:23;8.60;;;3.90;;
34541;SDS011;20784;51.332;12.410;2022-11-15T10:37:31;13.85;;;4.13;;
34541;SDS011;20784;51.332;12.410;2022-11-15T10:40:34;4.55;;;3.35;;
34541;SDS011;20784;51.332;12.410;2022-11-15T10:45:43;11.77;;;4.13;;
34541;SDS011;20784;51.332;12.410;2022-11-15T10:50:46;7.32;;;3.83;;
34541;SDS011;20784;51.332;12.410;2022-11-15T10:53:32;5.72;;;3.63;;
34541;SDS011;20784;51.332;12.410;2022-11-15T10:56:15;4.82;;;3.63;;
34541;SDS011;20784;51.332;12.410;2022-11-15T10:58:50;5.78;;;3.90;;
34541;SDS011;20784;51.332;12.410;2022-11-15T11:01:25;10.90;;;4.03;;
34541;SDS011;20784;51.332;12.410;2022-11-15T11:04:11;6.32;;;3.78;;
34541;SDS011;20784;51.332;12.410;2022-11-15T11:07:00;6.47;;;3.90;;
34541;SDS011;20784;51.332;12.410;2022-11-15T11:12:10;4.13;;;3.47;;
34541;SDS011;20784;51.332;12.410;2022-11-15T11:14:57;9.43;;;3.60;;
34541;SDS011;20784;51.332;12.410;2022-11-15T11:22:57;6.15;;;3.10;;
34541;SDS011;20784;51.332;12.410;2022-11-15T11:31:35;6.55;;;3.40;;
34541;SDS011;20784;51.332;12.410;2022-11-15T11:37:17;6.75;;;3.42;;
34541;SDS011;20784;51.332;12.410;2022-11-15T11:48:12;8.00;;;3.15;;
34541;SDS011;20784;51.332;12.410;2022-11-15T11:50:44;6.63;;;3.25;;
34541;SDS011;20784;51.332;12.410;2022-11-15T11:53:28;4.60;;;3.20;;
34541;SDS011;20784;51.332;12.410;2022-11-15T11:56:33;5.85;;;2.70;;
34541;SDS011;20784;51.332;12.410;2022-11-15T12:02:16;8.55;;;3.10;;
34541;SDS011;20784;51.332;12.410;2022-11-15T12:04:51;5.88;;;2.75;;
34541;SDS011;20784;51.332;12.410;2022-11-15T12:07:21;8.37;;;2.87;;
34541;SDS011;20784;51.332;12.410;2022-11-15T12:10:04;5.82;;;2.95;;
34541;SDS011;20784;51.332;12.410;2022-11-15T12:15:25;6.53;;;3.20;;
34541;SDS011;20784;51.332;12.410;2022-11-15T12:17:57;6.10;;;3.20;;
34541;SDS011;20784;51.332;12.410;2022-11-15T12:20:33;5.40;;;2.88;;
34541;SDS011;20784;51.332;12.410;2022-11-15T12:23:10;4.47;;;2.88;;
34541;SDS011;20784;51.332;12.410;2022-11-15T12:25:53;7.35;;;3.30;;
34541;SDS011;20784;51.332;12.410;2022-11-15T12:31:19;5.47;;;3.45;;
34541;SDS011;20784;51.332;12.410;2022-11-15T12:33:49;4.32;;;3.25;;
34541;SDS011;20784;51.332;12.410;2022-11-15T12:38:50;5.78;;;3.03;;
34541;SDS011;20784;51.332;12.410;2022-11-15T12:41:20;4.55;;;3.25;;
34541;SDS011;20784;51.332;12.410;2022-11-15T12:43:48;7.57;;;3.00;;
34541;SDS011;20784;51.332;12.410;2022-11-15T13:02:17;9.65;;;3.35;;
34541;SDS011;20784;51.332;12.410;2022-11-15T13:12:53;7.10;;;3.20;;
34541;SDS011;20784;51.332;12.410;2022-11-15T13:20:54;4.45;;;3.38;;
34541;SDS011;20784;51.332;12.410;2022-11-15T13:23:20;3.58;;;2.83;;
34541;SDS011;20784;51.332;12.410;2022-11-15T13:33:15;6.57;;;3.20;;
34541;SDS011;20784;51.332;12.410;2022-11-15T13:35:50;7.25;;;3.25;;
34541;SDS011;20784;51.332;12.410;2022-11-15T13:38:25;6.22;;;3.33;;
34541;SDS011;20784;51.332;12.410;2022-11-15T13:40:56;6.60;;;3.80;;
34541;SDS011;20784;51.332;12.410;2022-11-15T13:48:38;10.70;;;3.03;;
34541;SDS011;20784;51.332;12.410;2022-11-15T13:51:10;7.25;;;3.38;;
34541;SDS011;20784;51.332;12.410;2022-11-15T13:53:59;4.18;;;3.33;;
34541;SDS011;20784;51.332;12.410;2022-11-15T13:56:26;7.00;;;3.53;;
34541;SDS011;20784;51.332;12.410;2022-11-15T13:58:54;9.57;;;3.60;;
34541;SDS011;20784;51.332;12.410;2022-11-15T14:01:20;7.35;;;3.58;;
34541;SDS011;20784;51.332;12.410;2022-11-15T14:03:49;7.55;;;3.70;;
34541;SDS011;20784;51.332;12.410;2022-11-15T14:06:23;5.03;;;3.20;;
34541;SDS011;20784;51.332;12.410;2022-11-15T14:09:14;5.85;;;3.58;;
34541;SDS011;20784;51.332;12.410;2022-11-15T14:11:51;6.80;;;3.50;;
34541;SDS011;20784;51.332;12.410;2022-11-15T14:14:30;8.05;;;3.83;;
34541;SDS011;20784;51.332;12.410;2022-11-15T14:17:17;8.00;;;3.42;;
34541;SDS011;20784;51.332;12.410;2022-11-15T14:23:02;9.45;;;3.42;;
34541;SDS011;20784;51.332;12.410;2022-11-15T14:28:54;7.88;;;3.85;;
34541;SDS011;20784;51.332;12.410;2022-11-15T14:31:42;7.85;;;3.33;;
34541;SDS011;20784;51.332;12.410;2022-11-15T14:34:11;7.93;;;4.05;;
34541;SDS011;20784;51.332;12.410;2022-11-15T14:36:39;7.10;;;3.88;;
34541;SDS011;20784;51.332;12.410;2022-11-15T14:39:05;6.57;;;3.35;;
34541;SDS011;20784;51.332;12.410;2022-11-15T14:41:34;7.30;;;3.75;;
34541;SDS011;20784;51.332;12.410;2022-11-15T14:44:02;8.90;;;3.20;;
34541;SDS011;20784;51.332;12.410;2022-11-15T14:46:37;6.22;;;3.38;;
34541;SDS011;20784;51.332;12.410;2022-11-15T14:49:11;7.72;;;3.63;;
34541;SDS011;20784;51.332;12.410;2022-11-15T14:51:37;11.07;;;3.67;;
34541;SDS011;20784;51.332;12.410;2022-11-15T14:54:03;9.85;;;3.95;;
34541;SDS011;20784;51.332;12.410;2022-11-15T14:56:33;7.82;;;3.50;;
34541;SDS011;20784;51.332;12.410;2022-11-15T14:58:59;9.90;;;4.18;;
34541;SDS011;20784;51.332;12.410;2022-11-15T15:01:43;7.03;;;3.80;;
34541;SDS011;20784;51.332;12.410;2022-11-15T15:04:11;11.70;;;3.72;;
34541;SDS011;20784;51.332;12.410;2022-11-15T15:06:47;6.40;;;4.18;;
34541;SDS011;20784;51.332;12.410;2022-11-15T15:09:17;7.75;;;4.03;;
34541;SDS011;20784;51.332;12.410;2022-11-15T15:12:00;7.28;;;4.28;;
34541;SDS011;20784;51.332;12.410;2022-11-15T15:14:26;10.90;;;4.03;;
34541;SDS011;20784;51.332;12.410;2022-11-15T15:16:52;8.65;;;4.38;;
34541;SDS011;20784;51.332;12.410;2022-11-15T15:19:21;9.63;;;4.60;;
34541;SDS011;20784;51.332;12.410;2022-11-15T15:21:46;11.10;;;5.22;;
34541;SDS011;20784;51.332;12.410;2022-11-15T15:24:15;11.63;;;6.13;;
34541;SDS011;20784;51.332;12.410;2022-11-15T15:26:44;12.48;;;5.82;;
34541;SDS011;20784;51.332;12.410;2022-11-15T15:29:09;8.15;;;5.15;;
34541;SDS011;20784;51.332;12.410;2022-11-15T15:31:37;10.45;;;5.20;;
34541;SDS011;20784;51.332;12.410;2022-11-15T15:34:03;10.20;;;5.00;;
34541;SDS011;20784;51.332;12.410;2022-11-15T15:36:29;9.18;;;4.35;;
34541;SDS011;20784;51.332;12.410;2022-11-15T15:38:58;11.63;;;5.35;;
34541;SDS011;20784;51.332;12.410;2022-11-15T15:41:24;12.98;;;5.38;;
34541;SDS011;20784;51.332;12.410;2022-11-15T15:43:49;9.57;;;5.03;;
34541;SDS011;20784;51.332;12.410;2022-11-15T15:46:16;12.43;;;4.95;;
34541;SDS011;20784;51.332;12.410;2022-11-15T15:48:43;9.20;;;5.30;;
34541;SDS011;20784;51.332;12.410;2022-11-15T15:51:10;7.15;;;4.85;;
34541;SDS011;20784;51.332;12.410;2022-11-15T15:53:41;11.73;;;5.50;;
34541;SDS011;20784;51.332;12.410;2022-11-15T15:56:10;12.07;;;5.45;;
34541;SDS011;20784;51.332;12.410;2022-11-15T15:58:35;9.75;;;4.78;;
34541;SDS011;20784;51.332;12.410;2022-11-15T16:01:01;14.77;;;5.30;;
34541;SDS011;20784;51.332;12.410;2022-11-15T16:03:27;11.93;;;5.07;;
34541;SDS011;20784;51.332;12.410;2022-11-15T16:05:55;11.35;;;5.40;;
34541;SDS011;20784;51.332;12.410;2022-11-15T16:08:21;14.63;;;6.00;;
34541;SDS011;20784;51.332;12.410;2022-11-15T16:10:54;8.45;;;5.95;;
34541;SDS011;20784;51.332;12.410;2022-11-15T16:13:20;13.48;;;6.68;;
34541;SDS011;20784;51.332;12.410;2022-11-15T16:15:50;8.80;;;6.22;;
34541;SDS011;20784;51.332;12.410;2022-11-15T16:18:18;14.02;;;6.15;;
34541;SDS011;20784;51.332;12.410;2022-11-15T16:20:47;12.02;;;6.82;;
34541;SDS011;20784;51.332;12.410;2022-11-15T16:23:17;12.38;;;6.38;;
34541;SDS011;20784;51.332;12.410;2022-11-15T16:25:51;11.38;;;6.10;;
34541;SDS011;20784;51.332;12.410;2022-11-15T16:28:22;11.43;;;6.35;;
34541;SDS011;20784;51.332;12.410;2022-11-15T16:33:29;15.35;;;8.38;;
34541;SDS011;20784;51.332;12.410;2022-11-15T16:35:55;12.80;;;6.65;;
34541;SDS011;20784;51.332;12.410;2022-11-15T16:38:20;13.10;;;7.18;;
34541;SDS011;20784;51.332;12.410;2022-11-15T16:40:46;13.80;;;7.40;;
34541;SDS011;20784;51.332;12.410;2022-11-15T16:43:12;16.33;;;7.28;;
34541;SDS011;20784;51.332;12.410;2022-11-15T16:45:41;17.13;;;7.95;;
34541;SDS011;20784;51.332;12.410;2022-11-15T16:48:32;12.20;;;7.15;;
34541;SDS011;20784;51.332;12.410;2022-11-15T16:51:18;17.13;;;7.45;;
34541;SDS011;20784;51.332;12.410;2022-11-15T16:53:44;17.42;;;7.25;;
34541;SDS011;20784;51.332;12.410;2022-11-15T16:56:24;16.77;;;8.18;;
34541;SDS011;20784;51.332;12.410;2022-11-15T16:59:04;19.45;;;9.55;;
34541;SDS011;20784;51.332;12.410;2022-11-15T17:01:31;15.77;;;9.70;;
34541;SDS011;20784;51.332;12.410;2022-11-15T17:04:12;23.73;;;11.35;;
34541;SDS011;20784;51.332;12.410;2022-11-15T17:06:41;15.68;;;10.50;;
34541;SDS011;20784;51.332;12.410;2022-11-15T17:11:41;17.08;;;11.27;;
34541;SDS011;20784;51.332;12.410;2022-11-15T17:14:07;31.98;;;14.48;;
34541;SDS011;20784;51.332;12.410;2022-11-15T17:16:33;23.13;;;14.38;;
34541;SDS011;20784;51.332;12.410;2022-11-15T17:19:04;21.75;;;13.32;;
34541;SDS011;20784;51.332;12.410;2022-11-15T17:21:35;22.25;;;14.40;;